EmailTwitter


Observations de surface / Québec / LFRN

Régions: Québec | Canada | États-Unis | Europe | France | UK | Ailleurs
Station
Affichage
Infos & localisation pour LFRN | Aide pour décoder les METARs

Observations prises le 2017-09-21 à 10H30 UTC à RENNES/ST. JACQU, FR (LFRN)

Etat du ciel: partiellement nuageux.

Température: 19.0 Celsius

Point de rosée: 13.0 Celsius

Humidité relative: 68%

Vents: Sud-ouest à 17 km/h ou 9 noeuds.

Pression au niveau moyen de la mer: 101.70 kilopascals.

Visibilité horizontale: 6.21 milles terrestres ou 9.94 kilomètres.

Hauteur du plafond: 1585 mètres ( 5200 pieds ).

Observation METAR:

LFRN 211030Z AUTO 22009KT 180V250 9999 SCT024 BKN052 19/13 Q1017 NOSIG=